sensor_id;sensor_type;location;lat;lon;timestamp;pressure;altitude;pressure_sealevel;temperature;humidity
37764;BME280;23602;51.084;7.090;2022-12-29T04:40:29;98954.00;;;8.81;100.00
37764;BME280;23602;51.084;7.090;2022-12-29T04:42:54;98957.53;;;8.94;100.00
37764;BME280;23602;51.084;7.090;2022-12-29T04:45:20;98952.19;;;9.05;100.00
37764;BME280;23602;51.084;7.090;2022-12-29T04:47:45;98951.88;;;9.13;100.00
37764;BME280;23602;51.084;7.090;2022-12-29T04:50:11;98965.66;;;9.17;100.00
37764;BME280;23602;51.084;7.090;2022-12-29T04:52:37;98939.88;;;9.16;100.00
37764;BME280;23602;51.084;7.090;2022-12-29T04:55:03;98952.47;;;9.15;100.00
37764;BME280;23602;51.084;7.090;2022-12-29T04:57:28;98960.88;;;9.19;100.00
37764;BME280;23602;51.084;7.090;2022-12-29T04:59:53;98953.91;;;9.18;100.00
37764;BME280;23602;51.084;7.090;2022-12-29T05:02:19;98952.47;;;9.15;100.00
37764;BME280;23602;51.084;7.090;2022-12-29T05:04:44;98947.09;;;9.15;100.00
37764;BME280;23602;51.084;7.090;2022-12-29T05:07:09;98932.09;;;9.14;100.00
37764;BME280;23602;51.084;7.090;2022-12-29T05:09:35;98925.22;;;9.18;100.00
37764;BME280;23602;51.084;7.090;2022-12-29T05:12:00;98930.22;;;9.15;100.00
37764;BME280;23602;51.084;7.090;2022-12-29T05:16:40;98927.28;;;9.05;100.00
37764;BME280;23602;51.084;7.090;2022-12-29T05:19:05;98927.75;;;9.13;100.00
37764;BME280;23602;51.084;7.090;2022-12-29T05:21:30;98935.22;;;9.11;100.00
37764;BME280;23602;51.084;7.090;2022-12-29T05:23:56;98931.19;;;9.20;100.00
37764;BME280;23602;51.084;7.090;2022-12-29T05:26:21;98925.94;;;9.25;100.00
37764;BME280;23602;51.084;7.090;2022-12-29T05:28:46;98916.84;;;9.26;100.00
37764;BME280;23602;51.084;7.090;2022-12-29T05:31:12;98908.78;;;9.26;100.00
37764;BME280;23602;51.084;7.090;2022-12-29T05:33:37;98914.59;;;9.23;100.00
37764;BME280;23602;51.084;7.090;2022-12-29T05:36:07;98909.97;;;9.30;100.00
37764;BME280;23602;51.084;7.090;2022-12-29T05:38:33;98890.16;;;9.31;100.00
37764;BME280;23602;51.084;7.090;2022-12-29T05:40:59;98879.22;;;9.33;100.00
37764;BME280;23602;51.084;7.090;2022-12-29T05:43:24;98878.50;;;9.37;100.00
37764;BME280;23602;51.084;7.090;2022-12-29T05:45:49;98880.13;;;9.38;100.00
37764;BME280;23602;51.084;7.090;2022-12-29T05:48:15;98876.66;;;9.38;100.00
37764;BME280;23602;51.084;7.090;2022-12-29T05:50:40;98885.47;;;9.38;100.00
37764;BME280;23602;51.084;7.090;2022-12-29T05:53:05;98870.00;;;9.40;100.00
37764;BME280;23602;51.084;7.090;2022-12-29T05:55:31;98863.00;;;9.39;100.00
37764;BME280;23602;51.084;7.090;2022-12-29T05:57:56;98869.88;;;9.35;100.00
37764;BME280;23602;51.084;7.090;2022-12-29T06:00:22;98886.44;;;9.32;100.00
37764;BME280;23602;51.084;7.090;2022-12-29T06:02:47;98897.84;;;9.28;100.00
37764;BME280;23602;51.084;7.090;2022-12-29T06:05:13;98890.16;;;9.31;100.00
37764;BME280;23602;51.084;7.090;2022-12-29T06:07:38;98885.84;;;9.30;100.00
37764;BME280;23602;51.084;7.090;2022-12-29T06:10:05;98892.94;;;9.25;100.00
37764;BME280;23602;51.084;7.090;2022-12-29T06:12:31;98864.16;;;9.20;100.00
37764;BME280;23602;51.084;7.090;2022-12-29T06:14:56;98847.13;;;9.26;100.00
37764;BME280;23602;51.084;7.090;2022-12-29T06:17:21;98844.56;;;9.31;100.00
37764;BME280;23602;51.084;7.090;2022-12-29T06:19:47;98845.97;;;9.34;100.00
37764;BME280;23602;51.084;7.090;2022-12-29T06:22:12;98845.66;;;9.30;100.00
37764;BME280;23602;51.084;7.090;2022-12-29T06:24:38;98851.34;;;9.34;100.00
37764;BME280;23602;51.084;7.090;2022-12-29T06:27:03;98831.28;;;9.36;100.00
37764;BME280;23602;51.084;7.090;2022-12-29T06:29:28;98830.00;;;9.39;100.00
37764;BME280;23602;51.084;7.090;2022-12-29T06:31:53;98832.69;;;9.39;100.00
37764;BME280;23602;51.084;7.090;2022-12-29T06:34:23;98833.50;;;9.39;100.00
37764;BME280;23602;51.084;7.090;2022-12-29T06:36:48;98816.31;;;9.64;100.00
37764;BME280;23602;51.084;7.090;2022-12-29T06:39:14;98832.19;;;9.77;100.00
37764;BME280;23602;51.084;7.090;2022-12-29T06:41:39;98810.25;;;9.80;100.00
37764;BME280;23602;51.084;7.090;2022-12-29T06:44:04;98820.66;;;9.76;100.00
37764;BME280;23602;51.084;7.090;2022-12-29T06:46:30;98827.88;;;9.64;100.00
37764;BME280;23602;51.084;7.090;2022-12-29T06:48:58;98828.94;;;9.51;100.00
37764;BME280;23602;51.084;7.090;2022-12-29T06:51:23;98840.28;;;9.42;100.00
37764;BME280;23602;51.084;7.090;2022-12-29T06:53:49;98847.25;;;9.31;100.00
37764;BME280;23602;51.084;7.090;2022-12-29T06:56:14;98854.47;;;9.31;100.00
37764;BME280;23602;51.084;7.090;2022-12-29T06:58:39;98868.25;;;9.23;100.00
37764;BME280;23602;51.084;7.090;2022-12-29T07:01:05;98862.75;;;9.29;100.00
37764;BME280;23602;51.084;7.090;2022-12-29T07:03:30;98852.63;;;9.31;100.00
37764;BME280;23602;51.084;7.090;2022-12-29T07:05:55;98873.13;;;9.26;100.00
37764;BME280;23602;51.084;7.090;2022-12-29T07:08:23;98877.69;;;9.25;100.00
37764;BME280;23602;51.084;7.090;2022-12-29T07:10:48;98883.16;;;9.19;100.00
37764;BME280;23602;51.084;7.090;2022-12-29T07:13:14;98889.09;;;9.21;100.00
37764;BME280;23602;51.084;7.090;2022-12-29T07:15:39;98894.69;;;9.19;100.00
37764;BME280;23602;51.084;7.090;2022-12-29T07:18:04;98883.72;;;9.21;100.00
37764;BME280;23602;51.084;7.090;2022-12-29T07:20:30;98899.59;;;9.22;100.00
37764;BME280;23602;51.084;7.090;2022-12-29T07:22:56;98913.31;;;9.14;100.00
37764;BME280;23602;51.084;7.090;2022-12-29T07:25:21;98916.59;;;9.16;100.00
37764;BME280;23602;51.084;7.090;2022-12-29T07:27:47;98916.72;;;9.21;100.00
37764;BME280;23602;51.084;7.090;2022-12-29T07:30:12;98914.84;;;9.22;100.00
37764;BME280;23602;51.084;7.090;2022-12-29T07:32:38;98902.97;;;9.29;100.00
37764;BME280;23602;51.084;7.090;2022-12-29T07:35:03;98906.22;;;9.31;100.00
37764;BME280;23602;51.084;7.090;2022-12-29T07:37:28;98908.47;;;9.34;100.00
37764;BME280;23602;51.084;7.090;2022-12-29T07:39:54;98884.91;;;9.60;100.00
37764;BME280;23602;51.084;7.090;2022-12-29T07:42:19;98874.75;;;9.62;100.00
37764;BME280;23602;51.084;7.090;2022-12-29T07:44:44;98892.84;;;9.54;100.00
37764;BME280;23602;51.084;7.090;2022-12-29T07:47:10;98885.50;;;9.50;100.00
37764;BME280;23602;51.084;7.090;2022-12-29T07:49:35;98906.59;;;9.46;100.00
37764;BME280;23602;51.084;7.090;2022-12-29T07:52:00;98906.72;;;9.40;100.00
37764;BME280;23602;51.084;7.090;2022-12-29T07:54:26;98916.28;;;9.47;100.00
37764;BME280;23602;51.084;7.090;2022-12-29T07:56:51;98915.09;;;9.43;100.00
37764;BME280;23602;51.084;7.090;2022-12-29T07:59:16;98938.31;;;9.38;100.00
37764;BME280;23602;51.084;7.090;2022-12-29T08:01:42;98927.47;;;9.44;100.00
37764;BME280;23602;51.084;7.090;2022-12-29T08:04:07;98929.31;;;9.44;100.00
37764;BME280;23602;51.084;7.090;2022-12-29T08:06:33;98938.31;;;9.49;100.00
37764;BME280;23602;51.084;7.090;2022-12-29T08:08:58;98950.06;;;9.48;100.00
37764;BME280;23602;51.084;7.090;2022-12-29T08:11:26;98927.69;;;9.66;100.00
37764;BME280;23602;51.084;7.090;2022-12-29T08:13:52;98927.25;;;9.69;100.00
37764;BME280;23602;51.084;7.090;2022-12-29T08:16:17;98929.81;;;9.64;100.00
37764;BME280;23602;51.084;7.090;2022-12-29T08:18:43;98928.41;;;9.50;100.00
37764;BME280;23602;51.084;7.090;2022-12-29T08:21:09;98934.94;;;9.42;100.00
37764;BME280;23602;51.084;7.090;2022-12-29T08:23:34;98946.13;;;9.39;100.00
37764;BME280;23602;51.084;7.090;2022-12-29T08:26:01;98951.72;;;9.38;100.00
37764;BME280;23602;51.084;7.090;2022-12-29T08:28:27;98960.22;;;9.46;100.00
37764;BME280;23602;51.084;7.090;2022-12-29T08:30:53;98959.53;;;9.39;100.00
37764;BME280;23602;51.084;7.090;2022-12-29T08:33:18;98949.97;;;9.43;100.00
37764;BME280;23602;51.084;7.090;2022-12-29T08:35:44;98930.38;;;9.54;100.00
37764;BME280;23602;51.084;7.090;2022-12-29T08:38:09;98933.06;;;9.54;100.00
37764;BME280;23602;51.084;7.090;2022-12-29T08:40:36;98932.63;;;9.58;100.00
37764;BME280;23602;51.084;7.090;2022-12-29T08:43:01;98941.56;;;9.51;100.00
37764;BME280;23602;51.084;7.090;2022-12-29T08:45:27;98953.91;;;9.41;100.00
37764;BME280;23602;51.084;7.090;2022-12-29T08:47:52;98950.66;;;9.39;100.00
37764;BME280;23602;51.084;7.090;2022-12-29T08:50:28;98948.22;;;9.37;100.00
37764;BME280;23602;51.084;7.090;2022-12-29T08:52:53;98944.38;;;9.45;100.00
37764;BME280;23602;51.084;7.090;2022-12-29T08:55:19;98956.38;;;9.54;100.00
37764;BME280;23602;51.084;7.090;2022-12-29T08:57:44;98953.13;;;9.52;100.00
37764;BME280;23602;51.084;7.090;2022-12-29T09:00:10;98947.75;;;9.52;100.00
37764;BME280;23602;51.084;7.090;2022-12-29T09:02:36;98941.25;;;9.60;100.00
37764;BME280;23602;51.084;7.090;2022-12-29T09:05:01;98943.91;;;9.60;100.00
37764;BME280;23602;51.084;7.090;2022-12-29T09:07:26;98949.63;;;9.51;100.00
37764;BME280;23602;51.084;7.090;2022-12-29T09:09:52;98964.09;;;9.50;100.00
37764;BME280;23602;51.084;7.090;2022-12-29T09:12:17;98956.50;;;9.59;100.00
37764;BME280;23602;51.084;7.090;2022-12-29T09:14:43;98950.69;;;9.62;100.00
37764;BME280;23602;51.084;7.090;2022-12-29T09:17:10;98962.44;;;9.61;100.00
37764;BME280;23602;51.084;7.090;2022-12-29T09:19:54;98966.19;;;9.72;100.00
37764;BME280;23602;51.084;7.090;2022-12-29T09:22:19;98959.66;;;9.79;100.00
37764;BME280;23602;51.084;7.090;2022-12-29T09:24:45;98964.69;;;9.76;100.00
37764;BME280;23602;51.084;7.090;2022-12-29T09:27:10;98967.97;;;9.78;100.00
37764;BME280;23602;51.084;7.090;2022-12-29T09:29:36;98991.97;;;9.73;100.00
37764;BME280;23602;51.084;7.090;2022-12-29T09:32:01;99010.53;;;9.74;100.00
37764;BME280;23602;51.084;7.090;2022-12-29T09:34:27;98994.56;;;9.91;100.00
37764;BME280;23602;51.084;7.090;2022-12-29T09:36:52;98991.88;;;9.91;100.00
37764;BME280;23602;51.084;7.090;2022-12-29T09:39:17;98997.38;;;9.96;100.00
37764;BME280;23602;51.084;7.090;2022-12-29T09:41:50;98998.75;;;9.98;100.00
37764;BME280;23602;51.084;7.090;2022-12-29T09:44:48;98999.13;;;10.13;100.00
37764;BME280;23602;51.084;7.090;2022-12-29T09:47:19;99009.03;;;10.25;100.00
37764;BME280;23602;51.084;7.090;2022-12-29T09:50:00;99000.06;;;10.19;100.00
37764;BME280;23602;51.084;7.090;2022-12-29T09:52:32;99008.72;;;10.21;100.00
37764;BME280;23602;51.084;7.090;2022-12-29T09:55:20;98993.53;;;10.27;100.00
37764;BME280;23602;51.084;7.090;2022-12-29T09:57:56;99002.25;;;10.22;100.00
37764;BME280;23602;51.084;7.090;2022-12-29T10:00:38;99004.38;;;10.32;100.00
37764;BME280;23602;51.084;7.090;2022-12-29T10:03:15;99007.41;;;10.35;100.00
37764;BME280;23602;51.084;7.090;2022-12-29T10:05:56;99009.84;;;10.25;100.00
37764;BME280;23602;51.084;7.090;2022-12-29T10:14:13;98998.53;;;10.23;100.00
37764;BME280;23602;51.084;7.090;2022-12-29T10:24:34;98999.47;;;10.17;100.00
37764;BME280;23602;51.084;7.090;2022-12-29T10:27:03;98996.78;;;10.17;100.00
37764;BME280;23602;51.084;7.090;2022-12-29T10:29:40;99000.28;;;10.18;100.00
37764;BME280;23602;51.084;7.090;2022-12-29T10:32:33;98999.25;;;10.19;100.00
37764;BME280;23602;51.084;7.090;2022-12-29T10:35:26;98995.28;;;10.21;100.00
37764;BME280;23602;51.084;7.090;2022-12-29T10:38:04;98989.44;;;10.24;100.00
37764;BME280;23602;51.084;7.090;2022-12-29T10:43:53;99007.88;;;10.32;100.00
37764;BME280;23602;51.084;7.090;2022-12-29T10:46:25;99009.16;;;10.41;100.00
37764;BME280;23602;51.084;7.090;2022-12-29T10:48:52;99017.09;;;10.36;100.00
37764;BME280;23602;51.084;7.090;2022-12-29T10:51:28;99001.69;;;10.20;100.00
37764;BME280;23602;51.084;7.090;2022-12-29T10:53:58;99014.50;;;10.30;100.00
37764;BME280;23602;51.084;7.090;2022-12-29T10:56:54;99024.09;;;10.26;100.00
37764;BME280;23602;51.084;7.090;2022-12-29T10:59:26;99027.50;;;10.21;100.00
37764;BME280;23602;51.084;7.090;2022-12-29T11:07:20;99006.25;;;10.31;100.00
37764;BME280;23602;51.084;7.090;2022-12-29T11:09:46;99022.56;;;10.41;100.00
37764;BME280;23602;51.084;7.090;2022-12-29T11:12:29;99022.31;;;10.43;100.00
37764;BME280;23602;51.084;7.090;2022-12-29T11:20:38;99035.97;;;10.53;100.00
37764;BME280;23602;51.084;7.090;2022-12-29T11:23:26;99001.66;;;10.55;100.00
37764;BME280;23602;51.084;7.090;2022-12-29T11:28:37;99036.47;;;10.50;100.00
37764;BME280;23602;51.084;7.090;2022-12-29T11:31:04;99042.16;;;10.53;100.00
37764;BME280;23602;51.084;7.090;2022-12-29T11:33:32;99025.13;;;10.59;100.00
37764;BME280;23602;51.084;7.090;2022-12-29T11:36:05;99042.06;;;10.60;100.00
37764;BME280;23602;51.084;7.090;2022-12-29T11:38:46;99043.13;;;10.47;100.00
37764;BME280;23602;51.084;7.090;2022-12-29T11:41:21;99044.75;;;10.60;100.00
37764;BME280;23602;51.084;7.090;2022-12-29T11:43:47;99036.69;;;10.48;100.00
37764;BME280;23602;51.084;7.090;2022-12-29T11:46:16;99034.47;;;10.45;100.00
37764;BME280;23602;51.084;7.090;2022-12-29T11:48:42;99044.06;;;10.41;100.00
37764;BME280;23602;51.084;7.090;2022-12-29T11:51:09;99047.78;;;10.40;100.00
37764;BME280;23602;51.084;7.090;2022-12-29T11:53:46;99054.44;;;10.38;100.00
37764;BME280;23602;51.084;7.090;2022-12-29T11:56:17;99047.78;;;10.40;100.00
37764;BME280;23602;51.084;7.090;2022-12-29T11:58:45;99062.38;;;10.33;100.00
37764;BME280;23602;51.084;7.090;2022-12-29T12:01:32;99064.63;;;10.24;100.00
37764;BME280;23602;51.084;7.090;2022-12-29T12:04:23;99058.19;;;10.25;100.00
37764;BME280;23602;51.084;7.090;2022-12-29T12:10:01;99066.94;;;10.09;100.00
37764;BME280;23602;51.084;7.090;2022-12-29T12:12:35;99074.84;;;10.04;100.00
37764;BME280;23602;51.084;7.090;2022-12-29T12:15:03;99065.16;;;10.03;100.00
37764;BME280;23602;51.084;7.090;2022-12-29T12:17:45;99074.63;;;10.17;100.00
37764;BME280;23602;51.084;7.090;2022-12-29T12:20:21;99064.81;;;10.11;100.00
37764;BME280;23602;51.084;7.090;2022-12-29T12:22:55;99078.47;;;10.09;100.00
37764;BME280;23602;51.084;7.090;2022-12-29T12:25:30;99081.97;;;10.10;100.00
37764;BME280;23602;51.084;7.090;2022-12-29T12:28:09;99083.03;;;10.09;100.00
37764;BME280;23602;51.084;7.090;2022-12-29T12:30:40;99084.91;;;10.20;100.00
37764;BME280;23602;51.084;7.090;2022-12-29T12:33:22;99089.34;;;10.14;100.00
37764;BME280;23602;51.084;7.090;2022-12-29T12:36:04;99094.81;;;10.08;100.00
37764;BME280;23602;51.084;7.090;2022-12-29T12:38:45;99097.72;;;10.06;100.00
37764;BME280;23602;51.084;7.090;2022-12-29T12:42:16;99101.22;;;10.07;100.00
37764;BME280;23602;51.084;7.090;2022-12-29T12:44:37;99108.81;;;10.10;100.00
37764;BME280;23602;51.084;7.090;2022-12-29T12:50:13;99096.34;;;10.15;100.00
37764;BME280;23602;51.084;7.090;2022-12-29T12:55:26;99104.78;;;10.19;100.00
37764;BME280;23602;51.084;7.090;2022-12-29T12:58:20;99105.69;;;10.13;100.00
37764;BME280;23602;51.084;7.090;2022-12-29T13:01:12;99111.19;;;10.18;100.00
37764;BME280;23602;51.084;7.090;2022-12-29T13:09:46;99101.00;;;10.08;100.00
37764;BME280;23602;51.084;7.090;2022-12-29T13:18:06;99115.91;;;9.93;100.00
37764;BME280;23602;51.084;7.090;2022-12-29T13:36:46;99120.25;;;10.05;100.00
37764;BME280;23602;51.084;7.090;2022-12-29T13:39:18;99115.25;;;10.09;100.00
37764;BME280;23602;51.084;7.090;2022-12-29T13:41:48;99121.63;;;9.96;100.00
37764;BME280;23602;51.084;7.090;2022-12-29T13:44:21;99114.75;;;10.00;100.00
37764;BME280;23602;51.084;7.090;2022-12-29T13:46:50;99118.47;;;9.99;100.00
37764;BME280;23602;51.084;7.090;2022-12-29T13:49:19;99119.03;;;9.90;100.00
37764;BME280;23602;51.084;7.090;2022-12-29T13:51:58;99121.28;;;9.93;100.00
37764;BME280;23602;51.084;7.090;2022-12-29T13:54:31;99120.91;;;9.89;100.00
37764;BME280;23602;51.084;7.090;2022-12-29T13:57:37;99120.56;;;9.86;100.00
37764;BME280;23602;51.084;7.090;2022-12-29T14:00:25;99127.28;;;9.77;100.00
37764;BME280;23602;51.084;7.090;2022-12-29T14:05:30;99111.19;;;9.77;100.00
37764;BME280;23602;51.084;7.090;2022-12-29T14:08:19;99132.56;;;9.83;100.00
37764;BME280;23602;51.084;7.090;2022-12-29T14:11:00;99112.00;;;9.66;100.00
37764;BME280;23602;51.084;7.090;2022-12-29T14:13:38;99106.50;;;9.61;100.00
37764;BME280;23602;51.084;7.090;2022-12-29T14:16:30;99109.91;;;9.68;100.00
37764;BME280;23602;51.084;7.090;2022-12-29T14:19:19;99124.00;;;9.63;100.00
37764;BME280;23602;51.084;7.090;2022-12-29T14:22:00;99123.13;;;9.81;100.00
37764;BME280;23602;51.084;7.090;2022-12-29T14:29:42;99151.56;;;9.82;100.00
37764;BME280;23602;51.084;7.090;2022-12-29T14:34:55;99144.78;;;9.79;100.00
37764;BME280;23602;51.084;7.090;2022-12-29T14:37:31;99153.41;;;9.70;100.00
37764;BME280;23602;51.084;7.090;2022-12-29T14:40:25;99155.69;;;9.66;100.00
37764;BME280;23602;51.084;7.090;2022-12-29T14:42:56;99151.84;;;9.62;100.00
37764;BME280;23602;51.084;7.090;2022-12-29T14:45:29;99148.94;;;9.64;100.00
37764;BME280;23602;51.084;7.090;2022-12-29T14:47:59;99164.88;;;9.59;100.00
37764;BME280;23602;51.084;7.090;2022-12-29T14:53:49;99162.72;;;9.37;100.00
37764;BME280;23602;51.084;7.090;2022-12-29T14:56:23;99169.09;;;9.36;100.00
37764;BME280;23602;51.084;7.090;2022-12-29T14:59:04;99153.47;;;9.33;100.00
37764;BME280;23602;51.084;7.090;2022-12-29T15:01:52;99171.25;;;9.46;100.00
37764;BME280;23602;51.084;7.090;2022-12-29T15:04:23;99174.41;;;9.43;100.00
37764;BME280;23602;51.084;7.090;2022-12-29T15:06:50;99174.03;;;9.39;100.00
37764;BME280;23602;51.084;7.090;2022-12-29T15:09:33;99176.72;;;9.39;100.00
37764;BME280;23602;51.084;7.090;2022-12-29T15:12:31;99172.84;;;9.35;100.00
37764;BME280;23602;51.084;7.090;2022-12-29T15:15:00;99184.69;;;9.28;100.00
37764;BME280;23602;51.084;7.090;2022-12-29T15:17:42;99180.91;;;9.35;100.00
37764;BME280;23602;51.084;7.090;2022-12-29T15:20:35;99180.06;;;9.35;100.00
37764;BME280;23602;51.084;7.090;2022-12-29T15:23:08;99169.88;;;9.25;100.00
37764;BME280;23602;51.084;7.090;2022-12-29T15:25:55;99168.97;;;9.13;100.00
37764;BME280;23602;51.084;7.090;2022-12-29T15:28:27;99175.88;;;9.21;100.00
37764;BME280;23602;51.084;7.090;2022-12-29T15:31:12;99168.75;;;9.33;100.00
37764;BME280;23602;51.084;7.090;2022-12-29T15:33:51;99176.13;;;9.19;100.00
37764;BME280;23602;51.084;7.090;2022-12-29T15:36:23;99196.91;;;9.24;100.00
37764;BME280;23602;51.084;7.090;2022-12-29T15:39:07;99183.50;;;9.06;100.00
37764;BME280;23602;51.084;7.090;2022-12-29T15:44:50;99204.94;;;9.06;100.00
37764;BME280;23602;51.084;7.090;2022-12-29T15:47:43;99207.25;;;9.02;100.00
37764;BME280;23602;51.084;7.090;2022-12-29T15:53:00;99215.50;;;9.01;100.00
37764;BME280;23602;51.084;7.090;2022-12-29T15:55:42;99218.25;;;8.94;100.00
37764;BME280;23602;51.084;7.090;2022-12-29T16:04:31;99211.22;;;8.75;100.00
37764;BME280;23602;51.084;7.090;2022-12-29T16:07:04;99213.97;;;8.68;100.00
37764;BME280;23602;51.084;7.090;2022-12-29T16:09:46;99208.69;;;8.80;100.00
37764;BME280;23602;51.084;7.090;2022-12-29T16:12:25;99213.63;;;8.83;100.00
37764;BME280;23602;51.084;7.090;2022-12-29T16:14:56;99215.53;;;8.76;100.00
37764;BME280;23602;51.084;7.090;2022-12-29T16:17:46;99202.66;;;8.66;100.00
37764;BME280;23602;51.084;7.090;2022-12-29T16:23:32;99225.13;;;8.65;100.00
37764;BME280;23602;51.084;7.090;2022-12-29T16:26:25;99216.41;;;8.70;100.00
37764;BME280;23602;51.084;7.090;2022-12-29T16:29:00;99206.28;;;8.54;100.00
37764;BME280;23602;51.084;7.090;2022-12-29T16:34:34;99239.25;;;8.48;100.00
37764;BME280;23602;51.084;7.090;2022-12-29T16:37:31;99242.97;;;8.47;100.00
37764;BME280;23602;51.084;7.090;2022-12-29T16:43:04;99231.75;;;8.32;100.00
37764;BME280;23602;51.084;7.090;2022-12-29T16:48:46;99238.59;;;8.27;100.00
37764;BME280;23602;51.084;7.090;2022-12-29T16:51:34;99252.19;;;8.26;100.00
37764;BME280;23602;51.084;7.090;2022-12-29T16:54:21;99236.22;;;8.06;100.00
37764;BME280;23602;51.084;7.090;2022-12-29T16:57:09;99243.84;;;8.09;100.00
37764;BME280;23602;51.084;7.090;2022-12-29T16:59:45;99254.34;;;8.04;100.00
37764;BME280;23602;51.084;7.090;2022-12-29T17:02:27;99260.53;;;8.05;100.00
37764;BME280;23602;51.084;7.090;2022-12-29T17:04:53;99273.25;;;8.09;100.00
37764;BME280;23602;51.084;7.090;2022-12-29T17:07:29;99275.34;;;8.07;100.00
37764;BME280;23602;51.084;7.090;2022-12-29T17:10:08;99268.78;;;8.03;100.00
37764;BME280;23602;51.084;7.090;2022-12-29T17:12:49;99281.97;;;7.98;100.00
37764;BME280;23602;51.084;7.090;2022-12-29T17:15:26;99297.16;;;8.11;100.00
37764;BME280;23602;51.084;7.090;2022-12-29T17:17:59;99271.25;;;7.98;100.00
37764;BME280;23602;51.084;7.090;2022-12-29T17:20:37;99300.03;;;8.09;100.00
37764;BME280;23602;51.084;7.090;2022-12-29T17:23:38;99285.69;;;7.97;100.00
37764;BME280;23602;51.084;7.090;2022-12-29T17:26:07;99298.00;;;7.98;100.00
37764;BME280;23602;51.084;7.090;2022-12-29T17:28:39;99299.19;;;8.09;100.00
37764;BME280;23602;51.084;7.090;2022-12-29T17:31:35;99282.16;;;8.03;100.00
37764;BME280;23602;51.084;7.090;2022-12-29T17:37:26;99316.53;;;8.00;100.00
37764;BME280;23602;51.084;7.090;2022-12-29T17:39:52;99301.38;;;7.87;100.00
37764;BME280;23602;51.084;7.090;2022-12-29T17:42:44;99323.50;;;8.01;100.00
37764;BME280;23602;51.084;7.090;2022-12-29T17:45:15;99314.06;;;7.98;100.00
37764;BME280;23602;51.084;7.090;2022-12-29T17:47:46;99323.31;;;8.02;100.00
37764;BME280;23602;51.084;7.090;2022-12-29T17:50:23;99332.78;;;8.05;100.00
37764;BME280;23602;51.084;7.090;2022-12-29T17:53:04;99325.16;;;8.02;100.00
37764;BME280;23602;51.084;7.090;2022-12-29T17:55:42;99312.25;;;7.92;100.00
37764;BME280;23602;51.084;7.090;2022-12-29T17:58:27;99325.41;;;7.94;100.00
37764;BME280;23602;51.084;7.090;2022-12-29T18:01:02;99332.00;;;7.91;100.00
37764;BME280;23602;51.084;7.090;2022-12-29T18:03:32;99334.69;;;7.91;100.00
37764;BME280;23602;51.084;7.090;2022-12-29T18:06:00;99338.41;;;7.90;100.00
37764;BME280;23602;51.084;7.090;2022-12-29T18:08:31;99331.41;;;7.89;100.00
37764;BME280;23602;51.084;7.090;2022-12-29T18:10:59;99347.44;;;7.89;100.00
37764;BME280;23602;51.084;7.090;2022-12-29T18:13:31;99328.78;;;7.76;100.00
37764;BME280;23602;51.084;7.090;2022-12-29T18:16:22;99332.28;;;7.77;100.00
37764;BME280;23602;51.084;7.090;2022-12-29T18:19:03;99340.72;;;7.80;100.00
37764;BME280;23602;51.084;7.090;2022-12-29T18:21:30;99342.34;;;7.81;100.00
37764;BME280;23602;51.084;7.090;2022-12-29T18:24:00;99351.59;;;7.85;100.00
37764;BME280;23602;51.084;7.090;2022-12-29T18:26:27;99364.97;;;7.79;100.00
37764;BME280;23602;51.084;7.090;2022-12-29T18:29:11;99368.88;;;7.76;100.00
37764;BME280;23602;51.084;7.090;2022-12-29T18:31:47;99389.03;;;7.85;100.00
37764;BME280;23602;51.084;7.090;2022-12-29T18:34:13;99384.09;;;7.76;100.00
37764;BME280;23602;51.084;7.090;2022-12-29T18:36:56;99406.75;;;7.73;100.00
37764;BME280;23602;51.084;7.090;2022-12-29T18:39:32;99396.47;;;7.63;100.00
37764;BME280;23602;51.084;7.090;2022-12-29T18:42:01;99399.78;;;7.59;100.00
37764;BME280;23602;51.084;7.090;2022-12-29T18:44:32;99395.06;;;7.61;100.00
37764;BME280;23602;51.084;7.090;2022-12-29T18:47:03;99395.25;;;7.66;100.00
37764;BME280;23602;51.084;7.090;2022-12-29T18:49:31;99395.66;;;7.63;100.00
37764;BME280;23602;51.084;7.090;2022-12-29T18:51:56;99410.28;;;7.54;100.00
37764;BME280;23602;51.084;7.090;2022-12-29T18:54:30;99411.31;;;7.53;100.00
37764;BME280;23602;51.084;7.090;2022-12-29T18:56:56;99408.22;;;7.56;100.00
37764;BME280;23602;51.084;7.090;2022-12-29T18:59:24;99412.97;;;7.54;100.00
37764;BME280;23602;51.084;7.090;2022-12-29T19:04:25;99415.41;;;7.42;100.00
37764;BME280;23602;51.084;7.090;2022-12-29T19:06:55;99409.69;;;7.39;100.00
37764;BME280;23602;51.084;7.090;2022-12-29T19:12:20;99411.34;;;7.33;100.00
37764;BME280;23602;51.084;7.090;2022-12-29T19:14:48;99434.97;;;7.43;100.00
37764;BME280;23602;51.084;7.090;2022-12-29T19:17:20;99410.53;;;7.26;100.00
37764;BME280;23602;51.084;7.090;2022-12-29T19:19:46;99425.31;;;7.35;100.00
37764;BME280;23602;51.084;7.090;2022-12-29T19:22:11;99431.47;;;7.36;100.00
37764;BME280;23602;51.084;7.090;2022-12-29T19:25:06;99447.94;;;7.39;100.00
37764;BME280;23602;51.084;7.090;2022-12-29T19:27:42;99442.16;;;7.36;100.00
37764;BME280;23602;51.084;7.090;2022-12-29T19:30:11;99427.38;;;7.27;100.00
37764;BME280;23602;51.084;7.090;2022-12-29T19:32:40;99426.75;;;7.18;100.00
37764;BME280;23602;51.084;7.090;2022-12-29T19:35:28;99435.59;;;7.19;100.00
37764;BME280;23602;51.084;7.090;2022-12-29T19:38:07;99444.00;;;7.16;100.00
37764;BME280;23602;51.084;7.090;2022-12-29T19:40:53;99442.78;;;7.12;100.00
37764;BME280;23602;51.084;7.090;2022-12-29T19:43:23;99430.66;;;6.96;100.00
37764;BME280;23602;51.084;7.090;2022-12-29T19:45:53;99444.41;;;6.93;100.00
37764;BME280;23602;51.084;7.090;2022-12-29T19:48:42;99452.38;;;6.80;100.00
37764;BME280;23602;51.084;7.090;2022-12-29T19:51:25;99442.53;;;6.80;100.00
37764;BME280;23602;51.084;7.090;2022-12-29T19:54:12;99441.13;;;6.97;100.00
37764;BME280;23602;51.084;7.090;2022-12-29T19:56:46;99443.56;;;6.92;100.00
37764;BME280;23602;51.084;7.090;2022-12-29T19:59:14;99454.03;;;6.87;100.00
37764;BME280;23602;51.084;7.090;2022-12-29T20:01:46;99462.69;;;7.03;100.00